Time;durP1;ratioP1;P1;durP2;ratioP2;P2;SDS_P1;SDS_P2;PMS_P1;PMS_P2;Temp;Humidity;BMP_temperature;BMP_pressure;BME280_temperature;BME280_humidity;BME280_pressure;Samples;Min_cycle;Max_cycle;Signal;HPM_P1;HPM_P2
2022/02/25 06:23:09;;;;;;;;;1.00;1.00;;;;;16.50;57.61;102321.53;5075194;27;45688;-73
2022/02/25 06:25:35;;;;;;;;;1.00;1.00;;;;;16.68;57.16;102324.16;5057112;27;45739;-74
2022/02/25 06:28:00;;;;;;;;;1.00;1.00;;;;;16.95;57.53;102324.44;5053691;27;45783;-75
2022/02/25 06:30:26;;;;;;;;;0.25;0.25;;;;;17.31;57.24;102321.59;5057986;27;45561;-75
2022/02/25 06:32:52;;;;;;;;;1.00;1.00;;;;;17.70;56.83;102322.03;5049985;27;46214;-75
2022/02/25 06:35:18;;;;;;;;;1.00;1.00;;;;;18.07;56.49;102318.97;5057044;27;45626;-75
2022/02/25 06:37:43;;;;;;;;;0.00;0.00;;;;;18.50;55.62;102327.09;5066026;27;45473;-75
2022/02/25 06:40:10;;;;;;;;;0.33;0.33;;;;;18.88;55.72;102322.91;5066182;27;45505;-76
2022/02/25 06:42:37;;;;;;;;;3.00;1.00;;;;;19.27;54.83;102324.94;5057066;27;46335;-74
2022/02/25 06:45:02;;;;;;;;;1.00;1.00;;;;;19.66;54.44;102322.41;5060605;27;45484;-73
2022/02/25 06:47:28;;;;;;;;;0.00;0.00;;;;;20.03;53.89;102333.38;5063136;27;45372;-73
2022/02/25 06:49:53;;;;;;;;;0.00;0.00;;;;;20.37;53.19;102346.31;5059449;27;47222;-73
2022/02/25 06:52:19;;;;;;;;;0.00;0.00;;;;;20.69;52.74;102355.78;5059375;27;46669;-74
2022/02/25 06:54:44;;;;;;;;;0.00;0.00;;;;;21.02;51.95;102354.34;5058770;27;45917;-73
2022/02/25 06:57:09;;;;;;;;;0.00;0.00;;;;;21.30;51.64;102355.84;5062292;27;47242;-74
2022/02/25 06:59:35;;;;;;;;;3.00;0.00;;;;;21.57;50.79;102349.34;5069218;27;45519;-73
2022/02/25 07:02:00;;;;;;;;;1.00;1.00;;;;;21.84;50.73;102334.72;5062007;27;46376;-74
2022/02/25 07:04:25;;;;;;;;;0.00;0.00;;;;;22.08;50.48;102343.75;5070870;27;45759;-74
2022/02/25 07:06:51;;;;;;;;;0.00;0.00;;;;;22.30;49.95;102350.16;5063174;28;45519;-73
2022/02/25 07:09:17;;;;;;;;;2.00;1.00;;;;;22.51;49.59;102344.91;5068390;27;45499;-73
2022/02/25 07:11:42;;;;;;;;;0.00;0.00;;;;;22.71;48.69;102351.44;5065443;27;46643;-73
2022/02/25 07:14:09;;;;;;;;;2.67;1.33;;;;;22.87;48.60;102348.38;5055248;27;45519;-73
2022/02/25 07:16:34;;;;;;;;;1.00;1.00;;;;;23.04;48.52;102351.53;5066288;27;45445;-74
2022/02/25 07:19:00;;;;;;;;;1.00;1.00;;;;;23.20;47.70;102359.25;5058927;27;45812;-73
2022/02/25 07:21:25;;;;;;;;;1.00;1.00;;;;;23.34;47.65;102358.13;5063553;27;46438;-73
2022/02/25 07:23:50;;;;;;;;;2.00;1.00;;;;;23.48;47.78;102367.81;5060866;27;56214;-73
2022/02/25 07:26:15;;;;;;;;;1.00;1.00;;;;;23.63;47.19;102367.50;5064031;28;45576;-73
2022/02/25 07:28:41;;;;;;;;;3.00;2.00;;;;;23.76;47.02;102370.91;5058305;27;45514;-73
2022/02/25 07:31:06;;;;;;;;;3.00;3.00;;;;;23.89;46.68;102369.84;5065917;27;46323;-73
2022/02/25 07:33:31;;;;;;;;;1.67;1.67;;;;;24.00;46.57;102363.50;5052962;27;45574;-73
2022/02/25 07:35:57;;;;;;;;;2.00;2.00;;;;;24.10;46.37;102359.03;5049431;28;45591;-73
2022/02/25 07:38:23;;;;;;;;;2.00;1.67;;;;;24.20;46.14;102359.09;5052561;28;45700;-73
2022/02/25 07:40:48;;;;;;;;;3.00;3.00;;;;;24.29;46.03;102363.72;5054232;28;45467;-73
2022/02/25 07:43:18;;;;;;;;;3.00;3.00;;;;;24.40;45.86;102362.75;5048920;28;45649;-74
2022/02/25 07:45:48;;;;;;;;;2.67;2.00;;;;;24.49;45.63;102361.09;5051917;28;45457;-73
2022/02/25 07:48:13;;;;;;;;;2.67;2.67;;;;;24.57;45.70;102363.97;5053119;28;45410;-74
2022/02/25 07:50:38;;;;;;;;;2.67;2.67;;;;;24.66;45.00;102364.16;5051005;28;46033;-73
2022/02/25 07:53:04;;;;;;;;;3.00;3.00;;;;;24.72;44.80;102371.72;5054768;28;45686;-75
2022/02/25 07:55:30;;;;;;;;;3.00;3.00;;;;;24.78;44.86;102370.34;5048294;28;45399;-74
2022/02/25 07:57:56;;;;;;;;;2.33;2.33;;;;;24.84;44.32;102367.09;5051239;28;46063;-73
2022/02/25 08:00:24;;;;;;;;;3.00;3.00;;;;;24.86;44.94;102359.69;5044628;28;47377;-74
2022/02/25 08:02:50;;;;;;;;;2.00;2.00;;;;;24.97;43.47;102370.41;5046088;28;45533;-72
2022/02/25 08:05:15;;;;;;;;;1.33;1.33;;;;;24.96;42.63;102390.44;5045075;28;45620;-71
2022/02/25 08:07:42;;;;;;;;;1.00;1.00;;;;;24.92;42.49;102394.44;5055465;28;45417;-69
2022/02/25 08:10:08;;;;;;;;;1.00;1.00;;;;;24.87;42.90;102393.97;5043098;28;45862;-69
2022/02/25 08:12:33;;;;;;;;;1.00;1.00;;;;;24.84;42.56;102400.56;5046627;28;46092;-72
2022/02/25 08:14:58;;;;;;;;;3.00;1.00;;;;;24.80;42.54;102403.66;5053307;28;50082;-73
2022/02/25 08:17:25;;;;;;;;;2.00;2.00;;;;;24.79;42.45;102404.63;5051080;28;45492;-73
2022/02/25 08:19:50;;;;;;;;;0.33;0.33;;;;;24.80;42.46;102412.66;5053722;28;46236;-72
2022/02/25 08:22:18;;;;;;;;;0.00;0.00;;;;;24.82;42.71;102405.25;5041898;28;45337;-73
2022/02/25 08:24:44;;;;;;;;;1.00;1.00;;;;;24.84;42.15;102408.69;5050876;28;45565;-73
2022/02/25 08:27:10;;;;;;;;;1.00;0.67;;;;;24.89;42.40;102412.84;5053779;27;45436;-73
2022/02/25 08:29:35;;;;;;;;;1.00;1.00;;;;;24.88;42.29;102414.69;5052720;28;45555;-73
2022/02/25 08:32:00;;;;;;;;;0.00;0.00;;;;;24.90;42.19;102423.59;5050123;27;45463;-74
2022/02/25 08:34:26;;;;;;;;;1.00;1.00;;;;;24.90;42.19;102411.84;5044144;28;45539;-73
2022/02/25 08:36:55;;;;;;;;;0.00;0.00;;;;;24.83;42.28;102401.56;5051319;28;46901;-73
2022/02/25 08:39:21;;;;;;;;;2.67;1.00;;;;;24.86;42.00;102427.56;5048064;28;45765;-73
2022/02/25 08:41:46;;;;;;;;;1.00;1.00;;;;;24.84;41.94;102425.00;5055630;28;45442;-73
2022/02/25 08:44:12;;;;;;;;;1.00;1.00;;;;;24.81;41.81;102427.09;5052292;28;45509;-73
2022/02/25 08:46:38;;;;;;;;;0.00;0.00;;;;;24.80;41.88;102428.09;5046744;28;45427;-73
2022/02/25 08:49:03;;;;;;;;;1.00;0.00;;;;;24.76;41.87;102429.38;5055970;28;46271;-73
2022/02/25 08:51:29;;;;;;;;;4.00;1.00;;;;;24.71;41.64;102430.63;5050502;28;45598;-72
2022/02/25 08:53:54;;;;;;;;;2.00;0.67;;;;;24.68;41.72;102449.06;5054867;28;45470;-73
2022/02/25 08:56:23;;;;;;;;;1.00;1.00;;;;;24.61;41.81;102436.00;5054712;28;45543;-74
2022/02/25 08:58:50;;;;;;;;;2.67;0.00;;;;;24.62;41.76;102439.59;5044630;28;46394;-73
2022/02/25 09:01:15;;;;;;;;;1.00;1.00;;;;;24.58;41.43;102444.44;5041978;28;45380;-73
2022/02/25 09:03:40;;;;;;;;;3.33;1.00;;;;;24.55;41.76;102438.38;5044533;28;45454;-73
2022/02/25 09:06:06;;;;;;;;;1.00;1.00;;;;;24.52;41.77;102441.38;5060831;28;45431;-73
2022/02/25 09:08:31;;;;;;;;;1.00;1.00;;;;;24.49;41.77;102447.94;5051961;28;45660;-72
2022/02/25 09:10:56;;;;;;;;;2.00;1.00;;;;;24.47;41.70;102442.66;5050140;28;45340;-72
2022/02/25 09:13:22;;;;;;;;;1.00;1.00;;;;;24.46;41.42;102459.06;5043682;28;45835;-72
2022/02/25 09:15:47;;;;;;;;;2.67;1.00;;;;;24.46;41.31;102459.06;5040940;28;45727;-72
2022/02/25 09:18:13;;;;;;;;;1.33;1.33;;;;;24.45;40.83;102465.47;5049113;28;46055;-70
2022/02/25 09:20:38;;;;;;;;;2.00;2.00;;;;;24.39;41.55;102464.16;5053369;28;45610;-70
2022/02/25 09:23:04;;;;;;;;;2.67;2.33;;;;;24.32;41.36;102469.25;5062396;28;45418;-72
2022/02/25 09:25:30;;;;;;;;;2.00;2.00;;;;;24.28;41.60;102466.94;5045939;28;45520;-71
2022/02/25 09:27:56;;;;;;;;;3.00;1.33;;;;;24.24;41.56;102476.34;5069240;27;48309;-74
2022/02/25 09:30:22;;;;;;;;;4.00;1.00;;;;;24.20;41.58;102471.16;5051190;28;45416;-74
2022/02/25 09:32:47;;;;;;;;;3.33;1.33;;;;;24.17;42.03;102474.16;5048367;28;45486;-72
2022/02/25 09:35:13;;;;;;;;;3.33;0.33;;;;;24.17;42.18;102490.44;5051644;28;45567;-72
2022/02/25 09:37:39;;;;;;;;;5.00;4.00;;;;;24.15;42.31;102486.13;5035491;28;46679;-74
2022/02/25 09:40:11;;;;;;;;;2.33;2.33;;;;;24.15;42.20;102484.25;5050593;28;45583;-73
2022/02/25 09:42:38;;;;;;;;;1.67;1.00;;;;;24.16;42.27;102485.97;5041638;28;45546;-74
2022/02/25 09:45:05;;;;;;;;;2.00;2.00;;;;;24.18;43.00;102483.13;5041514;28;45628;-74
2022/02/25 09:47:33;;;;;;;;;1.67;1.67;;;;;24.21;42.57;102485.59;5038968;28;45316;-75
2022/02/25 09:49:58;;;;;;;;;0.33;0.33;;;;;24.20;42.64;102492.03;5042053;28;45418;-77
2022/02/25 09:52:25;;;;;;;;;1.00;1.00;;;;;24.26;42.78;102496.91;5042747;28;45509;-75
2022/02/25 09:54:51;;;;;;;;;3.00;2.00;;;;;24.27;42.95;102493.19;5042411;28;46574;-75
2022/02/25 09:57:16;;;;;;;;;0.00;0.00;;;;;24.32;42.83;102496.38;5042500;28;45652;-77
2022/02/25 09:59:41;;;;;;;;;1.67;1.67;;;;;24.35;42.92;102500.69;5037456;28;47503;-76
2022/02/25 10:02:08;;;;;;;;;2.00;1.00;;;;;24.36;43.08;102499.69;5046462;28;45416;-75
2022/02/25 10:04:34;;;;;;;;;1.00;1.00;;;;;24.40;42.91;102512.00;5040376;28;45510;-75
2022/02/25 10:07:00;;;;;;;;;4.00;2.33;;;;;24.41;43.09;102513.75;5041218;28;46186;-76
2022/02/25 10:09:39;;;;;;;;;2.00;0.33;;;;;24.45;43.11;102515.19;5038976;28;45570;-74
2022/02/25 10:12:07;;;;;;;;;2.00;0.00;;;;;24.48;43.21;102512.22;5045633;28;45459;-75
2022/02/25 10:14:35;;;;;;;;;2.33;1.00;;;;;24.52;42.91;102510.09;5040200;28;46922;-74
2022/02/25 10:17:05;;;;;;;;;2.00;2.00;;;;;24.53;43.25;102510.97;5036157;28;45633;-74
2022/02/25 10:19:30;;;;;;;;;1.33;1.00;;;;;24.54;42.99;102520.81;5044624;28;45498;-75
2022/02/25 10:22:12;;;;;;;;;2.00;1.00;;;;;24.55;43.01;102514.38;5042286;28;45426;-75
2022/02/25 10:25:00;;;;;;;;;2.33;1.00;;;;;24.57;43.42;102517.84;5041542;28;45745;-74
2022/02/25 10:27:55;;;;;;;;;1.00;1.00;;;;;24.60;43.48;102523.00;5039397;28;45442;-74
2022/02/25 10:30:22;;;;;;;;;2.67;2.67;;;;;24.65;43.31;102533.47;5043265;28;45618;-74
2022/02/25 10:32:54;;;;;;;;;1.33;1.33;;;;;24.64;42.83;102529.88;5044149;28;45456;-74
2022/02/25 10:35:28;;;;;;;;;2.00;2.00;;;;;24.68;42.74;102520.47;5055168;27;45645;-74
2022/02/25 10:37:58;;;;;;;;;3.00;3.00;;;;;24.73;43.06;102526.38;5042797;28;45618;-73
2022/02/25 10:40:25;;;;;;;;;4.33;3.00;;;;;24.68;42.84;102516.94;5039034;28;45453;-73
2022/02/25 10:42:50;;;;;;;;;4.00;2.00;;;;;24.70;42.31;102531.22;5040070;28;45528;-75
2022/02/25 10:45:29;;;;;;;;;3.00;3.00;;;;;24.68;42.87;102531.34;5048209;28;45502;-77
2022/02/25 10:48:00;;;;;;;;;0.33;0.33;;;;;24.66;42.65;102533.34;5043456;28;45698;-75
2022/02/25 10:50:26;;;;;;;;;0.67;0.33;;;;;24.64;42.55;102538.03;5041835;28;45506;-77
2022/02/25 10:52:53;;;;;;;;;1.67;1.67;;;;;24.64;42.64;102543.44;5045767;28;45963;-78
2022/02/25 10:55:22;;;;;;;;;1.00;1.00;;;;;24.62;42.76;102540.03;5039227;28;45592;-76
2022/02/25 10:57:49;;;;;;;;;3.33;3.33;;;;;24.60;42.75;102540.16;5043988;28;46625;-78
2022/02/25 11:00:18;;;;;;;;;2.00;2.00;;;;;24.63;43.04;102541.75;5057483;28;45768;-77
2022/02/25 11:02:47;;;;;;;;;1.00;1.00;;;;;24.65;42.97;102533.47;5036027;28;45408;-75
2022/02/25 11:05:24;;;;;;;;;2.00;2.00;;;;;24.70;42.80;102536.66;5047138;28;45348;-75
2022/02/25 11:07:54;;;;;;;;;1.00;0.33;;;;;24.76;42.68;102544.25;5039181;28;45870;-74
2022/02/25 11:10:23;;;;;;;;;1.00;1.00;;;;;24.75;42.31;102537.09;5041454;28;45493;-77
2022/02/25 11:12:49;;;;;;;;;3.67;1.67;;;;;24.77;42.59;102535.09;5040252;28;45575;-77
2022/02/25 11:15:27;;;;;;;;;3.33;2.00;;;;;24.79;42.53;102545.84;5039542;28;45368;-75
2022/02/25 11:17:54;;;;;;;;;2.33;1.33;;;;;24.81;42.39;102531.13;5042201;28;46370;-76
2022/02/25 11:20:22;;;;;;;;;3.00;1.00;;;;;24.81;42.52;102528.41;5046549;28;45510;-75
2022/02/25 11:22:53;;;;;;;;;2.33;2.00;;;;;24.81;42.49;102528.41;5051630;27;45447;-74
2022/02/25 11:25:19;;;;;;;;;3.67;2.00;;;;;24.82;42.59;102532.88;5049644;28;45403;-75
2022/02/25 11:27:46;;;;;;;;;0.67;0.00;;;;;24.81;42.65;102528.41;5048813;28;46941;-75
2022/02/25 11:30:32;;;;;;;;;0.33;0.33;;;;;24.82;42.66;102530.16;5044045;28;45592;-75
2022/02/25 11:33:00;;;;;;;;;3.67;3.00;;;;;24.80;42.73;102520.44;5054851;28;45613;-79
2022/02/25 11:35:32;;;;;;;;;4.33;2.00;;;;;24.80;42.75;102532.13;5051857;28;45347;-75
2022/02/25 11:37:59;;;;;;;;;4.00;2.33;;;;;24.82;41.98;102538.31;5056640;28;47457;-75
2022/02/25 11:40:47;;;;;;;;;2.67;1.00;;;;;24.85;42.01;102534.50;5051071;28;45554;-75
2022/02/25 11:43:12;;;;;;;;;1.00;1.00;;;;;24.89;41.29;102535.91;5057407;28;45466;-75
2022/02/25 11:45:49;;;;;;;;;3.67;2.67;;;;;24.96;40.87;102531.69;5055360;27;45402;-76
2022/02/25 11:48:21;;;;;;;;;3.00;3.00;;;;;24.97;40.13;102543.41;5043249;28;45624;-76
2022/02/25 11:50:50;;;;;;;;;2.00;2.00;;;;;24.94;39.15;102541.84;5046567;28;45547;-75
2022/02/25 11:53:18;;;;;;;;;1.33;1.00;;;;;24.93;38.57;102544.69;5047531;28;46129;-75
2022/02/25 11:55:45;;;;;;;;;2.33;2.33;;;;;24.94;38.18;102533.69;5048914;28;45536;-76
2022/02/25 11:58:43;;;;;;;;;1.00;1.00;;;;;25.00;37.97;102534.97;5046175;28;45486;-75
2022/02/25 12:01:12;;;;;;;;;3.67;2.67;;;;;25.04;37.47;102533.72;5051114;28;45776;-76
2022/02/25 12:04:07;;;;;;;;;3.00;3.00;;;;;25.03;37.02;102545.59;5052566;28;45329;-76
2022/02/25 12:07:15;;;;;;;;;2.00;1.00;;;;;24.93;37.19;102545.50;5046325;28;45493;-75
2022/02/25 12:09:41;;;;;;;;;3.00;2.00;;;;;24.89;36.25;102530.47;5032100;28;48961;-75
2022/02/25 12:12:24;;;;;;;;;3.00;1.00;;;;;24.86;36.02;102534.31;5031081;28;45435;-75
2022/02/25 12:15:04;;;;;;;;;1.00;1.00;;;;;24.79;36.21;102532.25;5027686;28;45541;-75
2022/02/25 12:17:43;;;;;;;;;1.33;1.00;;;;;24.71;36.07;102527.50;5030242;28;45412;-76
2022/02/25 12:20:13;;;;;;;;;4.33;1.33;;;;;24.68;36.11;102523.19;5028174;28;45608;-76
2022/02/25 12:23:03;;;;;;;;;3.00;3.00;;;;;24.65;35.80;102511.75;5032784;28;45491;-76
2022/02/25 12:25:40;;;;;;;;;1.00;1.00;;;;;24.62;35.69;102531.88;5029415;28;45642;-76
2022/02/25 12:28:26;;;;;;;;;2.00;2.00;;;;;24.57;35.80;102529.53;5029241;28;45563;-76
2022/02/25 12:30:57;;;;;;;;;1.67;1.67;;;;;24.54;35.40;102523.53;5028150;28;46383;-75
2022/02/25 12:33:39;;;;;;;;;2.33;2.00;;;;;24.53;35.16;102522.69;5025827;28;45495;-74
2022/02/25 12:36:06;;;;;;;;;1.00;1.00;;;;;24.49;34.42;102532.09;5011589;28;45484;-73
2022/02/25 12:38:38;;;;;;;;;7.00;3.00;;;;;24.41;35.28;102529.16;5034286;28;45488;-75
2022/02/25 12:41:18;;;;;;;;;3.33;3.33;;;;;24.32;35.48;102537.09;5029638;28;46201;-74
2022/02/25 12:44:08;;;;;;;;;2.00;2.00;;;;;24.27;35.94;102550.19;5041500;28;45606;-75
2022/02/25 12:46:37;;;;;;;;;3.00;3.00;;;;;24.25;36.27;102552.19;5053541;28;45442;-74
2022/02/25 12:49:07;;;;;;;;;3.00;3.00;;;;;24.23;36.45;102556.00;5046148;28;45488;-74
2022/02/25 12:51:33;;;;;;;;;4.33;3.00;;;;;24.22;36.46;102560.56;5047037;28;46022;-74
2022/02/25 12:54:00;;;;;;;;;3.67;1.00;;;;;24.21;36.68;102553.44;5043859;28;45527;-75
2022/02/25 12:56:30;;;;;;;;;4.00;2.00;;;;;24.22;36.76;102549.72;5050800;28;45398;-75
2022/02/25 12:59:08;;;;;;;;;2.00;2.00;;;;;24.25;36.86;102557.59;5047313;28;45542;-76
2022/02/25 13:01:36;;;;;;;;;3.67;2.33;;;;;24.26;37.23;102550.31;5054650;28;47340;-75
2022/02/25 13:04:06;;;;;;;;;3.00;3.00;;;;;24.28;37.34;102549.19;5046322;28;45478;-76
2022/02/25 13:06:37;;;;;;;;;2.67;2.00;;;;;24.31;37.40;102550.78;5046283;28;45594;-75
2022/02/25 13:09:06;;;;;;;;;2.50;2.50;;;;;24.37;37.41;102554.84;5038747;28;45908;-75
2022/02/25 13:11:33;;;;;;;;;3.67;3.00;;;;;24.44;37.74;102559.59;5041386;28;46376;-72
2022/02/25 13:14:14;;;;;;;;;8.33;5.33;;;;;24.53;37.90;102551.66;5046676;28;45449;-70
2022/02/25 13:16:40;;;;;;;;;6.33;4.67;;;;;24.56;37.93;102563.13;5048368;28;45382;-73
2022/02/25 13:19:20;;;;;;;;;11.33;5.00;;;;;24.61;37.75;102554.59;5048181;28;45526;-74
2022/02/25 13:21:45;;;;;;;;;5.00;4.00;;;;;24.59;37.57;102546.59;5059789;28;48315;-73
2022/02/25 13:24:10;;;;;;;;;7.67;5.33;;;;;24.60;37.97;102542.00;5038123;28;45612;-72
2022/02/25 13:26:36;;;;;;;;;9.00;4.00;;;;;24.60;37.97;102548.28;5049586;28;45775;-72
2022/02/25 13:29:03;;;;;;;;;5.33;5.33;;;;;24.56;38.02;102546.84;5049582;28;45497;-72
2022/02/25 13:31:28;;;;;;;;;11.67;5.33;;;;;24.49;38.23;102542.94;5042665;28;46431;-75
2022/02/25 13:33:54;;;;;;;;;6.33;5.00;;;;;24.45;38.72;102550.47;5043139;28;45384;-74
2022/02/25 13:36:22;;;;;;;;;5.67;5.00;;;;;24.42;38.58;102547.16;5062069;27;45554;-74
2022/02/25 13:38:55;;;;;;;;;6.67;5.00;;;;;24.35;39.06;102538.69;5049886;28;45375;-74
2022/02/25 13:41:20;;;;;;;;;3.67;3.67;;;;;24.41;39.20;102551.75;5052575;28;45760;-74
2022/02/25 13:43:48;;;;;;;;;6.00;3.33;;;;;24.45;39.32;102539.59;5050161;28;45574;-74
2022/02/25 13:46:32;;;;;;;;;4.67;3.00;;;;;24.53;39.39;102549.84;5046458;28;45443;-74
2022/02/25 13:54:52;;;;;;;;;7.00;6.67;;;;;24.78;39.32;102542.28;5031071;28;45582;-78
2022/02/25 13:57:27;;;;;;;;;8.00;5.67;;;;;24.80;39.53;102534.00;5030993;28;45586;-77
2022/02/25 13:59:57;;;;;;;;;6.67;5.00;;;;;24.86;39.39;102531.63;5027036;28;45393;-77
2022/02/25 14:02:31;;;;;;;;;3.67;2.00;;;;;24.98;39.68;102526.97;5033965;28;47340;-79
2022/02/25 14:05:06;;;;;;;;;5.33;4.00;;;;;25.06;39.33;102536.31;5033571;28;45518;-76
2022/02/25 14:07:38;;;;;;;;;2.33;2.33;;;;;25.07;39.39;102528.03;5032148;28;45700;-73
2022/02/25 14:10:07;;;;;;;;;3.67;3.00;;;;;25.12;39.27;102533.91;5027901;28;45607;-76
2022/02/25 14:12:43;;;;;;;;;4.67;2.67;;;;;25.16;39.42;102533.63;5027736;28;46095;-74
2022/02/25 14:15:13;;;;;;;;;4.00;3.00;;;;;25.17;39.47;102541.63;5028726;28;45887;-75
2022/02/25 14:17:38;;;;;;;;;2.00;2.00;;;;;25.19;39.57;102533.34;5032504;28;45583;-75
2022/02/25 14:20:07;;;;;;;;;4.00;2.33;;;;;25.22;39.78;102531.22;5027013;28;45497;-75
2022/02/25 14:22:32;;;;;;;;;6.00;4.67;;;;;25.27;39.89;102538.97;5028689;28;46725;-75
2022/02/25 14:24:58;;;;;;;;;7.33;4.00;;;;;25.30;39.64;102535.97;5023065;28;45360;-74
2022/02/25 14:27:23;;;;;;;;;6.00;4.00;;;;;25.32;40.00;102524.97;5031137;28;45793;-77
2022/02/25 14:30:04;;;;;;;;;5.00;3.00;;;;;25.35;39.65;102533.72;5029363;28;45502;-76
2022/02/25 14:32:30;;;;;;;;;4.67;3.00;;;;;25.36;39.73;102540.88;5044158;28;46504;-76
2022/02/25 14:34:56;;;;;;;;;5.00;2.67;;;;;25.36;39.98;102537.28;5050775;28;45442;-75
2022/02/25 14:37:24;;;;;;;;;4.00;4.00;;;;;25.41;39.67;102542.31;5039723;28;45442;-75
2022/02/25 14:39:50;;;;;;;;;6.00;2.33;;;;;25.38;39.76;102544.28;5038641;28;45631;-75
2022/02/25 14:42:16;;;;;;;;;1.33;1.33;;;;;25.36;40.06;102542.72;5035949;28;47601;-74
2022/02/25 14:44:41;;;;;;;;;2.67;2.67;;;;;25.31;39.94;102548.56;5051498;28;45483;-75
2022/02/25 14:47:07;;;;;;;;;3.67;3.67;;;;;25.30;40.02;102549.53;5053892;28;45255;-74
2022/02/25 14:49:32;;;;;;;;;3.33;2.67;;;;;25.28;40.04;102546.13;5049391;28;45476;-74
2022/02/25 14:51:57;;;;;;;;;6.00;2.33;;;;;25.25;40.31;102544.53;5047502;28;46288;-75
2022/02/25 14:54:23;;;;;;;;;3.33;1.33;;;;;25.25;40.34;102544.53;5051065;28;45531;-74
2022/02/25 14:56:48;;;;;;;;;4.00;4.00;;;;;25.23;40.14;102541.09;5047686;28;46567;-74
2022/02/25 14:59:13;;;;;;;;;6.67;1.00;;;;;25.24;40.67;102555.53;5037717;28;45344;-75
2022/02/25 15:01:39;;;;;;;;;4.00;2.00;;;;;25.21;40.42;102548.53;5048012;28;45945;-74
2022/02/25 15:04:05;;;;;;;;;4.00;2.00;;;;;25.21;40.42;102547.66;5042282;28;45762;-77
2022/02/25 15:06:30;;;;;;;;;1.00;1.00;;;;;25.20;40.59;102544.09;5047638;28;49215;-80
2022/02/25 15:08:55;;;;;;;;;3.33;2.33;;;;;25.21;40.73;102553.94;5038232;28;45435;-75
2022/02/25 15:11:21;;;;;;;;;3.67;2.67;;;;;25.19;40.46;102553.25;5037781;28;45465;-76
2022/02/25 15:13:49;;;;;;;;;5.33;1.67;;;;;25.17;40.58;102560.66;5038157;28;45729;-76
2022/02/25 15:16:14;;;;;;;;;4.67;2.33;;;;;25.15;40.79;102550.91;5050293;28;45483;-75
2022/02/25 15:18:40;;;;;;;;;4.00;3.00;;;;;25.13;40.67;102560.06;5048253;28;45446;-75
2022/02/25 15:21:06;;;;;;;;;2.67;2.33;;;;;25.12;40.67;102554.78;5049087;28;46885;-75
2022/02/25 15:23:31;;;;;;;;;3.00;3.00;;;;;25.09;40.98;102546.91;5043637;28;46171;-75
2022/02/25 15:25:57;;;;;;;;;2.00;2.00;;;;;25.09;41.13;102561.34;5048506;28;45627;-76
2022/02/25 15:28:22;;;;;;;;;1.67;1.67;;;;;25.05;41.25;102554.44;5045683;28;45454;-75
2022/02/25 15:30:48;;;;;;;;;4.00;2.00;;;;;25.03;40.97;102561.00;5052698;28;47646;-77
2022/02/25 15:33:13;;;;;;;;;2.00;1.00;;;;;25.03;41.05;102566.44;5059552;28;45609;-77
2022/02/25 15:35:39;;;;;;;;;1.00;1.00;;;;;25.01;41.35;102558.41;5048882;28;45515;-76
2022/02/25 15:38:05;;;;;;;;;2.33;1.67;;;;;24.98;41.53;102566.88;5042757;28;45498;-77
2022/02/25 15:40:30;;;;;;;;;5.00;3.00;;;;;24.96;41.57;102564.28;5048649;28;46682;-75
2022/02/25 15:42:55;;;;;;;;;6.00;2.67;;;;;24.97;41.50;102576.00;5045615;28;45704;-75
2022/02/25 15:45:21;;;;;;;;;3.67;2.00;;;;;24.96;41.48;102563.41;5046447;28;45361;-76
2022/02/25 15:47:46;;;;;;;;;6.00;2.00;;;;;24.96;41.44;102574.25;5058843;28;45554;-73
2022/02/25 15:50:12;;;;;;;;;4.00;1.33;;;;;24.92;41.63;102562.81;5046484;28;45832;-72
2022/02/25 15:52:37;;;;;;;;;5.00;3.00;;;;;24.92;41.80;102553.78;5048480;28;45751;-73
2022/02/25 15:55:03;;;;;;;;;4.67;1.67;;;;;24.92;41.51;102562.81;5048705;28;45470;-73
2022/02/25 15:57:29;;;;;;;;;1.00;1.00;;;;;24.88;42.04;102547.78;5046885;28;45634;-72
2022/02/25 15:59:54;;;;;;;;;2.67;2.33;;;;;24.87;41.67;102546.06;5039576;28;45672;-74
2022/02/25 16:02:21;;;;;;;;;2.00;2.00;;;;;24.86;42.25;102555.22;5040779;28;45739;-74
2022/02/25 16:04:46;;;;;;;;;1.67;1.33;;;;;24.84;41.86;102554.47;5042966;28;45812;-74
2022/02/25 16:07:11;;;;;;;;;2.00;2.00;;;;;24.82;41.92;102560.03;5038205;28;47346;-72
2022/02/25 16:09:37;;;;;;;;;2.00;1.00;;;;;24.81;42.08;102563.72;5036511;28;46128;-73
2022/02/25 16:12:04;;;;;;;;;3.33;2.00;;;;;24.80;42.22;102566.59;5038683;28;45507;-72
2022/02/25 16:14:29;;;;;;;;;3.00;3.00;;;;;24.79;41.93;102564.84;5038276;28;45489;-73
2022/02/25 16:16:54;;;;;;;;;1.00;0.67;;;;;24.80;41.92;102583.72;5039589;28;45583;-74
2022/02/25 16:19:20;;;;;;;;;2.67;1.33;;;;;24.78;42.17;102572.16;5037072;28;46994;-74
2022/02/25 16:21:45;;;;;;;;;2.00;1.00;;;;;24.76;42.20;102574.13;5039986;28;48968;-74
2022/02/25 16:24:11;;;;;;;;;1.67;0.33;;;;;24.74;42.31;102579.66;5037605;28;45447;-73
2022/02/25 16:26:36;;;;;;;;;1.00;1.00;;;;;24.72;42.26;102572.66;5040865;28;45440;-73
2022/02/25 16:29:02;;;;;;;;;2.00;1.00;;;;;24.73;42.53;102588.81;5038096;28;46948;-73
2022/02/25 16:31:27;;;;;;;;;1.00;1.00;;;;;24.72;42.38;102588.94;5039564;28;45727;-74
2022/02/25 16:33:52;;;;;;;;;2.00;2.00;;;;;24.72;42.33;102589.81;5040192;28;45656;-74
2022/02/25 16:36:18;;;;;;;;;8.00;4.33;;;;;24.75;41.40;102591.41;5043092;28;45653;-71
2022/02/25 16:38:43;;;;;;;;;9.00;8.67;;;;;24.78;40.72;102584.84;5037066;28;46375;-71
2022/02/25 16:41:09;;;;;;;;;6.33;4.00;;;;;24.72;40.27;102589.81;5039150;28;45757;-72
2022/02/25 16:43:35;;;;;;;;;6.67;3.67;;;;;24.65;40.26;102590.47;5039366;28;45516;-72
2022/02/25 16:46:02;;;;;;;;;8.33;5.00;;;;;24.59;40.69;102600.88;5035574;28;45570;-72
2022/02/25 16:48:27;;;;;;;;;4.67;3.00;;;;;24.53;40.21;102593.25;5040394;28;46244;-73
2022/02/25 16:50:54;;;;;;;;;5.33;4.00;;;;;24.47;40.46;102604.63;5039594;28;45570;-73
2022/02/25 16:53:20;;;;;;;;;5.67;3.33;;;;;24.44;40.50;102607.63;5043626;28;45419;-73
2022/02/25 16:55:45;;;;;;;;;5.67;5.33;;;;;24.39;40.38;102607.13;5037173;28;45432;-77
2022/02/25 16:58:12;;;;;;;;;2.67;1.67;;;;;24.34;40.38;102608.38;5042784;28;45937;-74
2022/02/25 17:00:42;;;;;;;;;3.00;2.33;;;;;24.30;40.62;102609.63;5043410;28;45504;-73
2022/02/25 17:03:07;;;;;;;;;6.67;3.33;;;;;24.21;40.50;102600.38;5036349;28;45521;-73
2022/02/25 17:05:33;;;;;;;;;3.00;2.00;;;;;24.17;39.79;102617.06;5036217;28;45621;-74
2022/02/25 17:07:59;;;;;;;;;6.33;2.33;;;;;24.09;40.18;102623.13;5042030;28;46130;-74
2022/02/25 17:10:24;;;;;;;;;2.67;2.67;;;;;24.06;39.79;102626.06;5039614;28;45439;-72
2022/02/25 17:12:50;;;;;;;;;2.00;2.00;;;;;24.02;39.88;102635.44;5037513;28;45463;-72
2022/02/25 17:15:15;;;;;;;;;3.33;3.00;;;;;24.02;40.31;102638.13;5036245;28;45403;-73
2022/02/25 17:17:41;;;;;;;;;3.67;3.67;;;;;23.99;40.23;102638.41;5040862;28;46782;-74
2022/02/25 17:20:07;;;;;;;;;4.67;3.00;;;;;23.95;40.17;102640.53;5038258;28;45483;-74
2022/02/25 17:22:32;;;;;;;;;3.33;3.33;;;;;23.93;40.29;102651.50;5050448;28;45721;-74
2022/02/25 17:24:58;;;;;;;;;5.67;3.00;;;;;23.92;40.29;102655.16;5045809;28;45535;-75
2022/02/25 17:27:23;;;;;;;;;3.00;3.00;;;;;23.92;40.44;102651.59;5048882;28;45477;-79
2022/02/25 17:29:49;;;;;;;;;7.00;4.67;;;;;23.91;40.48;102653.44;5065808;28;45505;-77
2022/02/25 17:32:14;;;;;;;;;15.00;10.00;;;;;23.92;39.48;102654.31;5053031;28;45549;-78
2022/02/25 17:34:40;;;;;;;;;7.33;5.00;;;;;23.96;39.01;102663.94;5051831;28;45521;-75
